Time;durP1;ratioP1;P1;durP2;ratioP2;P2;SDS_P1;SDS_P2;PMS_P1;PMS_P2;Temp;Humidity;BMP_temperature;BMP_pressure;BME280_temperature;BME280_humidity;BME280_pressure;Samples;Min_cycle;Max_cycle;Signal;HPM_P1;HPM_P2
2021/01/08 00:02:11;;;;;;;6.13;4.43;;;;;;;2.12;60.22;100694.56;8071651;28;20032;-64
2021/01/08 00:06:02;;;;;;;8.32;4.57;;;;;;;2.11;60.48;100698.06;8072739;28;20043;-62
2021/01/08 00:09:53;;;;;;;7.43;4.13;;;;;;;2.09;60.34;100705.03;8099320;28;20040;-61
2021/01/08 00:13:43;;;;;;;5.43;4.07;;;;;;;2.10;60.11;100704.13;8105137;28;20036;-61
2021/01/08 00:17:34;;;;;;;6.05;4.50;;;;;;;2.07;60.75;100701.66;8103572;27;20461;-62
2021/01/08 00:21:35;;;;;;;5.30;4.28;;;;;;;2.09;60.34;100697.25;8103893;28;20069;-61
2021/01/08 00:25:27;;;;;;;5.32;3.95;;;;;;;2.06;60.49;100702.53;8104001;28;20032;-61
2021/01/08 00:29:18;;;;;;;5.63;3.95;;;;;;;2.04;60.56;100701.72;8103427;28;20035;-62
2021/01/08 00:33:08;;;;;;;5.32;4.25;;;;;;;2.05;60.22;100697.41;8103341;28;20100;-61
2021/01/08 00:36:59;;;;;;;6.03;4.15;;;;;;;2.06;60.70;100704.28;8103694;28;20458;-61
2021/01/08 00:40:50;;;;;;;5.18;4.18;;;;;;;2.05;60.53;100705.19;8103599;28;20119;-61
2021/01/08 00:44:42;;;;;;;5.53;4.32;;;;;;;2.04;60.76;100706.91;8103351;28;20182;-62
2021/01/08 00:48:32;;;;;;;4.93;3.95;;;;;;;2.04;60.39;100706.09;8100770;28;20428;-62
2021/01/08 00:52:23;;;;;;;6.35;4.68;;;;;;;2.03;60.05;100705.25;8102104;28;20046;-61
2021/01/08 00:56:18;;;;;;;6.53;4.90;;;;;;;2.05;60.63;100702.59;8103866;28;20048;-63
2021/01/08 01:00:12;;;;;;;7.17;4.40;;;;;;;2.04;60.54;100706.09;8072832;28;20073;-62
2021/01/08 01:04:02;;;;;;;6.32;4.65;;;;;;;2.04;59.89;100708.69;8070684;28;20028;-62
2021/01/08 01:07:53;;;;;;;6.18;4.63;;;;;;;2.04;60.57;100711.28;8080956;28;20039;-61
2021/01/08 01:11:43;;;;;;;5.78;4.60;;;;;;;2.02;60.39;100711.31;8102302;28;20043;-64
2021/01/08 01:15:34;;;;;;;6.20;4.60;;;;;;;2.01;60.63;100711.34;8102098;28;20403;-62
2021/01/08 01:19:24;;;;;;;6.55;4.75;;;;;;;1.98;60.22;100709.72;8102353;27;20120;-60
2021/01/08 01:23:15;;;;;;;5.78;4.53;;;;;;;1.97;60.56;100710.63;8102810;28;20043;-61
2021/01/08 01:27:06;;;;;;;6.57;4.38;;;;;;;1.95;60.41;100715.88;8103208;28;20376;-63
2021/01/08 01:30:56;;;;;;;6.47;5.10;;;;;;;1.97;60.60;100710.63;8100823;28;20043;-61
2021/01/08 01:34:47;;;;;;;6.90;4.90;;;;;;;1.98;60.47;100722.69;8102634;28;20035;-61
2021/01/08 01:38:38;;;;;;;6.82;5.05;;;;;;;1.95;60.33;100725.38;8093759;28;20012;-61
2021/01/08 01:42:28;;;;;;;8.48;5.90;;;;;;;2.00;60.49;100730.41;8101365;28;20076;-63
2021/01/08 01:46:21;;;;;;;7.13;5.40;;;;;;;2.01;60.57;100726.91;8100702;28;20052;-61
2021/01/08 01:50:12;;;;;;;6.57;5.13;;;;;;;2.01;59.84;100735.53;8101324;28;20036;-61
2021/01/08 01:54:02;;;;;;;6.25;5.35;;;;;;;1.99;59.87;100733.91;8102777;28;20063;-61
2021/01/08 01:57:53;;;;;;;7.20;5.30;;;;;;;1.92;60.28;100728.91;8094145;28;20107;-61
2021/01/08 02:01:44;;;;;;;6.72;5.20;;;;;;;1.95;59.90;100734.00;8067972;28;20055;-60
2021/01/08 02:05:35;;;;;;;5.97;5.05;;;;;;;1.95;60.15;100736.59;8069580;28;20369;-63
2021/01/08 02:09:26;;;;;;;6.38;5.22;;;;;;;1.97;60.53;100745.16;8091438;28;20242;-60
2021/01/08 02:13:23;;;;;;;6.68;4.88;;;;;;;2.01;60.59;100750.22;8100495;28;20076;-61
2021/01/08 02:17:15;;;;;;;6.17;4.57;;;;;;;1.99;60.35;100749.44;8099592;28;20404;-61
2021/01/08 02:21:15;;;;;;;5.28;4.53;;;;;;;2.00;60.59;100748.56;8101210;28;20031;-61
2021/01/08 02:25:15;;;;;;;5.50;4.70;;;;;;;2.02;60.09;100755.38;8101859;28;20054;-61
2021/01/08 02:29:06;;;;;;;5.93;4.50;;;;;;;2.02;60.20;100757.09;8099695;28;20515;-61
2021/01/08 02:32:58;;;;;;;6.10;4.68;;;;;;;2.03;60.53;100753.63;8100154;28;20058;-61
2021/01/08 02:36:50;;;;;;;4.28;3.78;;;;;;;2.01;60.54;100753.66;8101876;28;20114;-61
2021/01/08 02:40:44;;;;;;;6.85;4.65;;;;;;;2.01;60.00;100753.66;8100668;28;20501;-61
2021/01/08 02:44:34;;;;;;;5.63;4.63;;;;;;;2.01;60.15;100752.81;8101691;28;20090;-61
2021/01/08 02:48:25;;;;;;;5.93;4.40;;;;;;;2.02;60.45;100764.88;8099117;28;20476;-61
2021/01/08 02:52:17;;;;;;;4.57;3.80;;;;;;;2.04;59.81;100761.31;8101049;28;20475;-61
2021/01/08 02:56:22;;;;;;;4.07;3.33;;;;;;;2.04;60.15;100761.31;8100867;28;20020;-61
2021/01/08 03:00:14;;;;;;;4.32;3.67;;;;;;;2.03;60.52;100767.44;8072787;28;20051;-63
2021/01/08 03:04:05;;;;;;;4.03;3.47;;;;;;;2.03;60.34;100764.84;8067992;28;20136;-63
2021/01/08 03:07:56;;;;;;;3.90;3.47;;;;;;;2.03;60.53;100769.16;8079542;28;20028;-63
2021/01/08 03:11:57;;;;;;;4.40;3.33;;;;;;;2.03;60.13;100767.44;8106571;28;20036;-64
2021/01/08 03:15:48;;;;;;;3.72;2.92;;;;;;;2.04;60.35;100768.28;8106058;28;20040;-61
2021/01/08 03:19:39;;;;;;;3.90;3.33;;;;;;;2.04;60.18;100771.69;8106420;28;20444;-62
2021/01/08 03:23:29;;;;;;;3.42;2.90;;;;;;;2.04;60.51;100763.91;8107276;28;20458;-64
2021/01/08 03:27:20;;;;;;;3.40;2.88;;;;;;;2.04;60.02;100771.69;8107365;28;20031;-61
2021/01/08 03:31:10;;;;;;;3.30;2.90;;;;;;;2.03;60.12;100771.75;8105299;27;20132;-62
2021/01/08 03:35:02;;;;;;;2.88;2.42;;;;;;;2.05;60.05;100767.38;8107326;28;20046;-61
2021/01/08 03:38:52;;;;;;;3.33;2.67;;;;;;;2.06;60.29;100774.25;8105600;28;20089;-61
2021/01/08 03:42:43;;;;;;;3.25;2.80;;;;;;;2.06;59.93;100769.06;8104744;28;20023;-61
2021/01/08 03:46:36;;;;;;;3.88;2.97;;;;;;;2.04;60.10;100773.47;8105036;28;20055;-61
2021/01/08 03:50:26;;;;;;;3.38;2.55;;;;;;;2.04;60.40;100773.47;8105652;27;20114;-61
2021/01/08 03:54:17;;;;;;;2.55;2.35;;;;;;;2.05;60.19;100781.16;8106673;28;20122;-63
2021/01/08 03:58:07;;;;;;;2.35;2.13;;;;;;;2.05;60.16;100780.31;8093872;28;20032;-60
2021/01/08 04:01:58;;;;;;;2.75;2.22;;;;;;;2.05;59.93;100785.50;8071065;28;20123;-61
2021/01/08 04:05:49;;;;;;;2.72;2.30;;;;;;;2.03;60.53;100782.97;8072875;28;20392;-62
2021/01/08 04:09:39;;;;;;;2.67;2.22;;;;;;;2.02;60.15;100780.44;8096736;28;20039;-62
2021/01/08 04:13:30;;;;;;;2.33;2.03;;;;;;;2.00;60.25;100779.66;8105947;28;20118;-62
2021/01/08 04:17:21;;;;;;;2.80;2.20;;;;;;;2.01;60.49;100789.94;8103591;28;20054;-61
2021/01/08 04:21:11;;;;;;;2.78;2.25;;;;;;;2.00;60.21;100788.22;8103633;27;20114;-62
2021/01/08 04:25:03;;;;;;;2.90;2.38;;;;;;;2.00;60.22;100788.22;8104950;28;20031;-62
2021/01/08 04:28:54;;;;;;;2.17;1.98;;;;;;;1.98;60.01;100790.03;8104139;28;20031;-62
2021/01/08 04:32:44;;;;;;;2.38;2.00;;;;;;;1.98;60.31;100787.44;8103758;28;20075;-62
2021/01/08 04:36:35;;;;;;;2.72;1.88;;;;;;;1.96;59.92;100791.81;8104640;28;20114;-61
2021/01/08 04:40:29;;;;;;;2.70;2.03;;;;;;;1.96;60.29;100786.63;8103867;28;20068;-62
2021/01/08 04:44:20;;;;;;;2.15;1.77;;;;;;;1.94;59.73;100793.63;8103899;28;20039;-62
2021/01/08 04:48:13;;;;;;;1.75;1.65;;;;;;;1.92;59.79;100793.66;8102316;28;20043;-62
2021/01/08 04:52:07;;;;;;;2.00;1.70;;;;;;;1.91;60.33;100792.00;8104600;28;20047;-62
2021/01/08 04:56:05;;;;;;;2.03;1.58;;;;;;;1.90;60.04;100797.22;8084770;28;20520;-61
2021/01/08 04:59:56;;;;;;;2.08;1.90;;;;;;;1.87;60.07;100797.31;8095718;28;20032;-62
2021/01/08 05:03:47;;;;;;;2.03;1.83;;;;;;;1.87;59.72;100805.91;8102274;28;20040;-62
2021/01/08 05:07:37;;;;;;;2.47;1.77;;;;;;;1.85;60.13;100802.53;8103595;28;20046;-62
2021/01/08 05:11:30;;;;;;;1.98;1.70;;;;;;;1.84;60.04;100805.16;8102941;28;20047;-62
2021/01/08 05:15:24;;;;;;;2.05;1.77;;;;;;;1.84;59.85;100810.34;8102511;28;20036;-62
2021/01/08 05:19:14;;;;;;;1.75;1.65;;;;;;;1.83;60.02;100811.25;8103144;28;20429;-62
2021/01/08 05:23:05;;;;;;;2.42;1.67;;;;;;;1.81;60.09;100807.84;8103472;28;20733;-61
2021/01/08 05:27:00;;;;;;;2.40;2.00;;;;;;;1.81;60.35;100805.25;8103113;28;20046;-62
2021/01/08 05:30:51;;;;;;;2.15;1.85;;;;;;;1.80;59.74;100806.16;8101860;28;20031;-62
2021/01/08 05:34:43;;;;;;;2.65;2.13;;;;;;;1.78;60.05;100808.81;8102682;28;20042;-62
2021/01/08 05:38:35;;;;;;;2.53;2.05;;;;;;;1.79;60.17;100809.66;8102142;28;20063;-62
2021/01/08 05:42:27;;;;;;;2.30;1.98;;;;;;;1.78;59.98;100810.53;8102471;28;20034;-62
2021/01/08 05:46:26;;;;;;;2.30;1.92;;;;;;;1.76;59.97;100809.72;8101513;28;20042;-62
2021/01/08 05:50:22;;;;;;;3.33;2.17;;;;;;;1.77;60.49;100811.44;8102243;28;20480;-61
2021/01/08 05:54:14;;;;;;;1.85;1.65;;;;;;;1.70;60.09;100810.78;8102658;28;20042;-62
2021/01/08 05:58:16;;;;;;;3.88;2.05;;;;;;;1.75;60.40;100818.41;8093372;28;20420;-62
2021/01/08 06:02:08;;;;;;;2.15;1.70;;;;;;;1.74;60.41;100825.34;8069328;28;20044;-62
2021/01/08 06:06:01;;;;;;;2.13;1.67;;;;;;;1.75;60.11;100829.59;8069837;28;20035;-62
2021/01/08 06:09:54;;;;;;;2.30;1.73;;;;;;;1.77;60.05;100834.75;8069738;28;20066;-63
2021/01/08 06:13:49;;;;;;;1.98;1.77;;;;;;;1.75;60.02;100834.78;8069622;28;20036;-65
2021/01/08 06:17:44;;;;;;;2.25;1.70;;;;;;;1.76;60.30;100831.31;8068703;28;20131;-63
2021/01/08 06:21:41;;;;;;;2.08;1.77;;;;;;;1.77;59.84;100829.56;8070177;28;20039;-65
2021/01/08 06:25:33;;;;;;;2.00;1.60;;;;;;;1.78;59.66;100839.03;8070202;28;20028;-64
2021/01/08 06:29:29;;;;;;;2.13;1.90;;;;;;;1.78;59.88;100846.81;8070084;28;20438;-64
2021/01/08 06:33:25;;;;;;;2.08;1.88;;;;;;;1.74;60.39;100848.66;8068427;28;20560;-64
2021/01/08 06:37:18;;;;;;;1.70;1.50;;;;;;;1.74;60.34;100843.47;8074379;28;20032;-65
2021/01/08 06:41:12;;;;;;;2.50;2.00;;;;;;;1.74;59.68;100848.66;8100831;28;20032;-65
2021/01/08 06:45:03;;;;;;;4.95;1.95;;;;;;;1.73;60.38;100854.72;8104227;28;20031;-65
2021/01/08 06:48:55;;;;;;;4.60;1.85;;;;;;;1.71;60.02;100848.72;8105502;28;20100;-64
2021/01/08 06:52:48;;;;;;;2.63;1.95;;;;;;;1.71;60.12;100863.44;8107308;28;20100;-65
2021/01/08 06:56:44;;;;;;;2.50;1.83;;;;;;;1.71;60.23;100859.06;8107795;28;20039;-65
2021/01/08 07:00:35;;;;;;;2.13;1.73;;;;;;;1.70;59.69;100872.94;8075035;28;20039;-64
2021/01/08 07:04:29;;;;;;;1.98;1.63;;;;;;;1.69;59.61;100881.59;8074939;28;20404;-64
2021/01/08 07:08:20;;;;;;;2.17;1.65;;;;;;;1.67;60.08;100885.09;8088204;28;20148;-65
2021/01/08 07:12:11;;;;;;;2.25;1.98;;;;;;;1.64;60.00;100888.66;8106579;28;20039;-64
2021/01/08 07:16:17;;;;;;;2.92;1.77;;;;;;;1.64;59.84;100895.56;8105700;28;20047;-64
2021/01/08 07:20:08;;;;;;;2.40;1.88;;;;;;;1.62;59.88;100905.97;8105953;28;20381;-65
2021/01/08 07:24:01;;;;;;;3.03;1.63;;;;;;;1.63;59.77;100899.03;8106472;28;20484;-65
2021/01/08 07:27:53;;;;;;;2.67;1.98;;;;;;;1.63;60.24;100910.25;8106257;28;20031;-65
2021/01/08 07:31:44;;;;;;;2.10;1.75;;;;;;;1.65;60.00;100920.56;8104436;28;20085;-64
2021/01/08 07:35:35;;;;;;;2.45;1.80;;;;;;;1.64;60.20;100922.31;8105426;28;20035;-64
2021/01/08 07:39:43;;;;;;;2.42;1.95;;;;;;;1.65;59.97;100925.75;8070058;27;20074;-65
2021/01/08 07:43:35;;;;;;;;;;;;;;;1.62;59.74;100925.84;8057084;28;20036;-65
2021/01/08 07:47:28;;;;;;;2.83;1.95;;;;;;;1.63;59.89;100936.13;8062954;28;19951;-65
2021/01/08 07:51:19;;;;;;;3.65;1.90;;;;;;;1.66;60.30;100941.25;8071517;28;20039;-65
2021/01/08 07:55:12;;;;;;;3.75;2.20;;;;;;;1.68;60.35;100949.81;8072514;28;20040;-65
2021/01/08 07:59:08;;;;;;;2.90;2.17;;;;;;;1.66;60.01;100940.41;8084670;28;20028;-65
2021/01/08 08:03:00;;;;;;;2.55;1.88;;;;;;;1.66;59.82;100953.34;8060483;28;20082;-65
2021/01/08 08:06:51;;;;;;;3.05;2.47;;;;;;;1.72;60.24;100959.19;8068451;28;20032;-63
2021/01/08 08:10:42;;;;;;;2.88;2.10;;;;;;;1.74;60.04;100959.16;8104481;27;20043;-65
2021/01/08 08:14:32;;;;;;;4.45;2.40;;;;;;;1.75;60.48;100969.47;8093382;28;20110;-65
2021/01/08 08:18:23;;;;;;;3.42;2.67;;;;;;;1.75;60.13;100982.41;8070540;28;20656;-64
2021/01/08 08:22:13;;;;;;;3.45;2.58;;;;;;;1.78;60.63;100982.34;8072538;28;20032;-65
2021/01/08 08:26:04;;;;;;;3.25;2.38;;;;;;;1.80;60.14;100985.72;8072519;28;20401;-64
2021/01/08 08:29:55;;;;;;;3.03;2.38;;;;;;;1.83;60.34;100998.59;8070403;28;20028;-64
2021/01/08 08:33:46;;;;;;;5.00;2.72;;;;;;;1.85;60.16;100996.81;8070770;28;20048;-64
2021/01/08 08:37:47;;;;;;;3.08;2.58;;;;;;;1.88;60.18;101001.06;8079969;28;20027;-65
2021/01/08 08:41:44;;;;;;;3.30;2.40;;;;;;;1.91;60.04;101001.00;8072313;28;20036;-65
2021/01/08 08:45:35;;;;;;;3.83;2.80;;;;;;;1.90;60.13;100994.09;8068518;28;20048;-64
2021/01/08 08:49:34;;;;;;;4.93;3.03;;;;;;;1.96;60.68;101001.69;8071066;28;20169;-64
2021/01/08 08:53:24;;;;;;;3.30;2.67;;;;;;;1.99;60.17;101017.16;8072084;28;20040;-65
2021/01/08 08:57:16;;;;;;;4.72;2.95;;;;;;;2.04;60.27;101014.44;8073656;28;20028;-64
2021/01/08 09:01:06;;;;;;;4.05;2.67;;;;;;;2.08;60.17;101021.25;8102258;28;20048;-65
2021/01/08 09:04:59;;;;;;;3.97;2.92;;;;;;;2.11;60.76;101021.16;8103883;28;20193;-65
2021/01/08 09:08:49;;;;;;;5.95;2.83;;;;;;;2.13;60.41;101022.78;8098061;28;20073;-63
2021/01/08 09:13:03;;;;;;;5.65;2.90;;;;;;;2.14;60.69;101019.31;8070622;28;20408;-64
2021/01/08 09:16:55;;;;;;;3.38;2.63;;;;;;;2.16;60.55;101032.22;8058063;28;20039;-65
2021/01/08 09:20:52;;;;;;;4.53;3.30;;;;;;;2.21;60.14;101027.75;8070212;28;20571;-65
2021/01/08 09:24:47;;;;;;;4.35;3.10;;;;;;;2.25;60.26;101029.34;8071182;28;20184;-64
2021/01/08 09:28:42;;;;;;;3.90;3.00;;;;;;;2.29;60.35;101034.41;8069840;28;20036;-64
2021/01/08 09:32:33;;;;;;;3.80;2.72;;;;;;;2.32;60.44;101041.25;8070085;28;20051;-65
2021/01/08 09:36:47;;;;;;;5.20;3.13;;;;;;;2.29;60.12;101036.16;8070771;28;20036;-65
2021/01/08 09:40:37;;;;;;;4.50;2.65;;;;;;;2.36;60.47;101048.06;8087715;28;20110;-64
2021/01/08 09:44:41;;;;;;;3.78;2.70;;;;;;;2.39;60.86;101051.41;8102672;28;20540;-65
2021/01/08 09:48:32;;;;;;;5.47;3.35;;;;;;;2.41;60.90;101057.38;8100601;28;20093;-64
2021/01/08 09:52:29;;;;;;;4.18;2.42;;;;;;;2.48;60.91;101062.41;8102843;28;20406;-64
2021/01/08 09:56:20;;;;;;;3.67;2.95;;;;;;;2.52;60.73;101061.41;8103128;28;20069;-65
2021/01/08 10:00:11;;;;;;;3.92;3.08;;;;;;;2.58;60.54;101069.03;8073771;28;20036;-65
2021/01/08 10:04:05;;;;;;;3.72;2.90;;;;;;;2.61;60.33;101068.94;8070474;28;20093;-65
2021/01/08 10:07:56;;;;;;;5.10;3.00;;;;;;;2.68;60.53;101068.69;8080269;28;20032;-64
2021/01/08 10:11:57;;;;;;;3.15;2.47;;;;;;;2.75;60.82;101071.94;8096455;28;20611;-65
2021/01/08 10:15:54;;;;;;;3.40;2.50;;;;;;;2.79;60.75;101076.97;8051391;28;20045;-65
2021/01/08 10:19:46;;;;;;;4.78;2.75;;;;;;;2.86;60.87;101068.13;8041256;28;20090;-64
2021/01/08 10:23:42;;;;;;;3.63;2.65;;;;;;;2.94;60.78;101070.50;8043927;28;20032;-65
2021/01/08 10:27:32;;;;;;;3.67;2.63;;;;;;;3.03;60.72;101072.81;8043810;28;20036;-65
2021/01/08 10:31:24;;;;;;;2.90;2.42;;;;;;;3.07;60.78;101070.97;8042307;28;20101;-64
2021/01/08 10:35:18;;;;;;;5.53;2.90;;;;;;;3.09;60.50;101063.94;8043720;28;20116;-65
2021/01/08 10:39:09;;;;;;;4.28;2.85;;;;;;;3.16;60.42;101070.63;8084029;28;20050;-65
2021/01/08 10:42:59;;;;;;;4.22;2.35;;;;;;;3.21;60.57;101077.38;8108365;28;20126;-64
2021/01/08 10:46:50;;;;;;;4.60;2.42;;;;;;;3.24;60.36;101074.69;8107066;27;20488;-65
2021/01/08 10:50:40;;;;;;;2.83;2.33;;;;;;;3.29;60.84;101078.03;8106863;28;20028;-65
2021/01/08 10:54:32;;;;;;;3.40;2.17;;;;;;;3.32;60.82;101072.72;8107809;28;20049;-65
2021/01/08 10:58:23;;;;;;;3.75;2.20;;;;;;;3.35;60.62;101076.97;8095865;28;20024;-66
2021/01/08 11:02:14;;;;;;;3.00;2.22;;;;;;;3.37;60.50;101075.16;8073858;28;20054;-64
2021/01/08 11:06:04;;;;;;;3.08;2.30;;;;;;;3.42;60.54;101077.63;8075183;28;20032;-65
2021/01/08 11:09:55;;;;;;;2.92;2.25;;;;;;;3.46;60.67;101080.06;8077041;28;20028;-65
2021/01/08 11:13:46;;;;;;;3.72;2.50;;;;;;;3.49;60.97;101073.94;8068128;28;20034;-63
2021/01/08 11:17:36;;;;;;;2.50;1.98;;;;;;;3.52;60.45;101069.47;8085393;27;20057;-65
2021/01/08 11:21:28;;;;;;;2.88;2.33;;;;;;;3.56;60.81;101081.47;8085246;28;20046;-65
2021/01/08 11:25:18;;;;;;;3.20;2.45;;;;;;;3.58;60.97;101076.19;8090309;28;20031;-65
2021/01/08 11:29:09;;;;;;;2.95;2.33;;;;;;;3.59;60.75;101064.91;8086693;28;20032;-64
2021/01/08 11:33:00;;;;;;;5.07;2.70;;;;;;;3.61;60.70;101071.75;8086646;28;20043;-61
2021/01/08 11:36:55;;;;;;;3.25;2.55;;;;;;;3.63;60.56;101071.69;8088348;28;20034;-63
2021/01/08 11:40:46;;;;;;;3.55;2.58;;;;;;;3.65;60.66;101075.13;8087504;28;20531;-66
2021/01/08 11:44:36;;;;;;;3.03;2.15;;;;;;;3.66;60.88;101076.78;8084935;28;20031;-65
2021/01/08 11:48:27;;;;;;;3.92;2.60;;;;;;;3.65;60.66;101070.78;8085079;28;20047;-65
2021/01/08 11:52:17;;;;;;;3.50;2.47;;;;;;;3.67;60.46;101073.28;8085722;28;20071;-65
2021/01/08 11:56:12;;;;;;;3.85;2.78;;;;;;;3.69;60.45;101074.97;8089344;28;20032;-64
2021/01/08 12:00:04;;;;;;;4.57;2.97;;;;;;;3.70;60.44;101078.38;8086322;28;20070;-65
2021/01/08 12:04:03;;;;;;;4.40;2.85;;;;;;;3.69;60.45;101080.16;8082901;28;20634;-64
2021/01/08 12:07:54;;;;;;;4.38;3.25;;;;;;;3.66;60.67;101081.97;8087309;28;20044;-65
2021/01/08 12:11:45;;;;;;;4.15;2.85;;;;;;;3.62;60.45;101083.84;8084698;28;20767;-65
2021/01/08 12:15:35;;;;;;;5.72;3.50;;;;;;;3.59;60.38;101091.75;8082387;28;20161;-62
2021/01/08 12:19:26;;;;;;;4.68;3.30;;;;;;;3.56;60.31;101094.47;8085757;28;20066;-64
2021/01/08 12:23:16;;;;;;;5.28;3.13;;;;;;;3.53;60.45;101088.53;8086090;28;20096;-65
2021/01/08 12:27:07;;;;;;;3.28;2.65;;;;;;;3.51;60.22;101093.75;8084739;28;20040;-65
2021/01/08 12:30:58;;;;;;;4.95;3.15;;;;;;;3.51;60.32;101091.16;8086688;28;20529;-64
2021/01/08 12:34:48;;;;;;;3.53;2.83;;;;;;;3.52;60.56;101095.47;8085168;28;20039;-64
2021/01/08 12:38:39;;;;;;;4.25;3.25;;;;;;;3.57;60.37;101090.13;8083350;28;20904;-65
2021/01/08 12:42:29;;;;;;;4.30;3.03;;;;;;;3.61;60.61;101091.72;8083777;28;20047;-65
2021/01/08 12:46:20;;;;;;;3.97;3.03;;;;;;;3.64;60.77;101087.25;8082472;27;20040;-65
2021/01/08 12:50:11;;;;;;;4.80;3.00;;;;;;;3.70;60.53;101097.41;8083477;28;20039;-65
2021/01/08 12:54:02;;;;;;;6.22;3.22;;;;;;;3.73;60.56;101094.75;8085453;28;20585;-65
2021/01/08 12:57:53;;;;;;;5.53;2.83;;;;;;;3.77;60.69;101098.94;8086924;28;20035;-64
2021/01/08 13:01:43;;;;;;;4.40;3.13;;;;;;;3.74;60.46;101083.41;8082615;28;20069;-65
2021/01/08 13:05:34;;;;;;;4.15;3.38;;;;;;;3.79;60.35;101093.66;8084381;28;20077;-65
2021/01/08 13:09:24;;;;;;;4.00;3.08;;;;;;;3.76;60.17;101092.03;8083827;28;20047;-65
2021/01/08 13:13:15;;;;;;;3.85;2.72;;;;;;;3.76;60.31;101099.81;8083850;28;20052;-65
2021/01/08 13:17:06;;;;;;;2.92;2.20;;;;;;;3.70;60.29;101102.63;8081776;28;20691;-65
2021/01/08 13:20:57;;;;;;;3.83;2.80;;;;;;;3.64;60.06;101105.44;8083874;28;20116;-63
2021/01/08 13:24:47;;;;;;;4.82;2.90;;;;;;;3.59;60.30;101096.94;8079700;28;20039;-63
2021/01/08 13:28:39;;;;;;;3.63;2.72;;;;;;;3.57;60.18;101106.53;8082079;28;20492;-65
2021/01/08 13:32:30;;;;;;;5.35;3.03;;;;;;;3.61;60.35;101099.50;8082814;28;20044;-65
2021/01/08 13:36:21;;;;;;;3.95;2.38;;;;;;;3.58;60.07;101099.59;8081722;28;20069;-67
2021/01/08 13:40:14;;;;;;;4.65;3.05;;;;;;;3.61;60.20;101104.69;8085375;28;20043;-64
2021/01/08 13:44:05;;;;;;;1.75;1.42;;;;;;;3.60;60.03;101116.84;8075067;28;20127;-64
2021/01/08 13:47:56;;;;;;;1.67;1.33;;;;;;;3.50;59.69;101107.63;8077752;28;20095;-67
2021/01/08 13:51:46;;;;;;;2.03;1.27;;;;;;;3.54;59.96;101124.81;8081507;28;20124;-69
2021/01/08 13:55:37;;;;;;;1.83;1.27;;;;;;;3.51;59.57;101124.06;8083617;28;20168;-65
2021/01/08 13:59:27;;;;;;;1.42;1.30;;;;;;;3.44;59.91;101126.03;8080710;28;20723;-70
2021/01/08 14:03:18;;;;;;;1.27;1.17;;;;;;;3.49;60.06;101133.69;8080820;28;20055;-72
2021/01/08 14:07:09;;;;;;;1.70;1.23;;;;;;;3.46;59.59;101134.59;8084821;28;20028;-70
2021/01/08 14:10:59;;;;;;;1.95;1.35;;;;;;;3.45;59.49;101143.28;8081987;28;20035;-74
2021/01/08 14:14:50;;;;;;;2.00;1.58;;;;;;;3.44;59.60;101148.56;8079783;28;20399;-65
2021/01/08 14:18:40;;;;;;;1.45;1.35;;;;;;;3.43;59.85;101154.63;8077864;28;20038;-67
2021/01/08 14:22:31;;;;;;;1.30;1.20;;;;;;;3.40;59.64;101160.78;8080282;28;20036;-65
2021/01/08 14:26:23;;;;;;;1.48;1.20;;;;;;;3.39;59.74;101155.63;8083814;28;20036;-64
2021/01/08 14:30:14;;;;;;;1.80;1.27;;;;;;;3.36;59.83;101164.38;8080106;28;20538;-65
2021/01/08 14:34:10;;;;;;;1.83;1.20;;;;;;;3.36;59.74;101166.13;8079663;28;20027;-63
2021/01/08 14:38:01;;;;;;;2.30;1.38;;;;;;;3.33;59.99;101167.91;8084760;28;20034;-65
2021/01/08 14:41:52;;;;;;;2.15;1.33;;;;;;;3.25;59.85;101162.06;8080876;28;20039;-65
2021/01/08 14:45:44;;;;;;;1.60;1.48;;;;;;;3.25;59.83;101174.19;8082673;28;20062;-64
2021/01/08 14:49:34;;;;;;;3.35;2.00;;;;;;;3.23;59.71;101184.66;8081885;28;20043;-63
2021/01/08 14:53:25;;;;;;;1.30;1.20;;;;;;;3.18;59.78;101177.88;8085362;28;20053;-64
2021/01/08 14:57:17;;;;;;;1.30;1.13;;;;;;;3.16;59.77;101183.13;8079614;28;20100;-64
2021/01/08 15:01:08;;;;;;;2.22;2.03;;;;;;;3.13;59.38;101195.34;8077611;28;20074;-62
2021/01/08 15:04:58;;;;;;;1.52;1.20;;;;;;;3.11;59.59;101187.63;8077996;28;20565;-63
2021/01/08 15:08:49;;;;;;;1.98;1.55;;;;;;;2.92;59.72;101176.06;8085646;28;20043;-63
2021/01/08 15:12:40;;;;;;;1.73;1.30;;;;;;;3.05;59.34;101207.69;8081592;28;20096;-66
2021/01/08 15:16:31;;;;;;;1.98;1.60;;;;;;;3.01;59.51;101203.50;8079642;28;20059;-63
2021/01/08 15:20:21;;;;;;;1.65;1.40;;;;;;;2.99;59.79;101210.50;8079663;28;20077;-62
2021/01/08 15:24:12;;;;;;;1.58;1.27;;;;;;;2.99;59.72;101218.28;8084408;28;20502;-62
2021/01/08 15:28:02;;;;;;;1.83;1.50;;;;;;;2.97;59.93;101218.31;8087287;28;20057;-63
2021/01/08 15:32:00;;;;;;;1.55;1.45;;;;;;;2.92;59.37;101217.59;8086217;27;20052;-63
2021/01/08 15:36:01;;;;;;;1.92;1.50;;;;;;;2.96;59.51;101224.38;8085553;28;20041;-62
2021/01/08 15:39:51;;;;;;;2.42;1.60;;;;;;;2.94;59.92;101226.19;8079159;28;20046;-63
2021/01/08 15:43:46;;;;;;;1.48;1.38;;;;;;;2.94;59.52;101236.56;8082073;28;20665;-62
2021/01/08 15:47:36;;;;;;;1.90;1.50;;;;;;;2.93;59.91;101236.63;8084700;27;20139;-62
2021/01/08 15:51:28;;;;;;;2.00;1.52;;;;;;;2.90;59.64;101250.53;8087908;28;20399;-62
2021/01/08 15:55:18;;;;;;;1.90;1.50;;;;;;;2.91;59.32;101249.63;8084348;27;20081;-63
2021/01/08 15:59:09;;;;;;;1.90;1.48;;;;;;;2.90;59.65;101255.72;8085889;27;20031;-62
2021/01/08 16:02:59;;;;;;;2.85;1.67;;;;;;;2.91;59.71;101260.00;8087657;28;20039;-61
2021/01/08 16:06:51;;;;;;;4.05;1.60;;;;;;;2.90;59.54;101258.31;8087836;28;20416;-61
2021/01/08 16:10:45;;;;;;;2.15;1.55;;;;;;;2.91;59.74;101265.19;8083899;28;20045;-61
2021/01/08 16:14:35;;;;;;;3.22;1.48;;;;;;;2.91;59.68;101270.38;8081454;28;20055;-60
2021/01/08 16:18:27;;;;;;;1.92;1.60;;;;;;;2.91;59.79;101274.75;8083336;28;20395;-61
2021/01/08 16:22:18;;;;;;;2.58;1.63;;;;;;;2.90;59.51;101286.88;8085065;28;20037;-60
2021/01/08 16:26:09;;;;;;;3.83;1.50;;;;;;;2.89;59.63;101292.94;8087125;28;20043;-61
2021/01/08 16:30:00;;;;;;;2.45;1.77;;;;;;;2.88;59.52;101291.22;8084148;28;21849;-61
2021/01/08 16:33:51;;;;;;;2.72;1.92;;;;;;;2.88;59.43;101297.28;8082623;28;20090;-61
2021/01/08 16:37:42;;;;;;;2.70;2.00;;;;;;;2.89;59.93;101290.34;8084462;28;20755;-61
2021/01/08 16:41:34;;;;;;;2.17;1.70;;;;;;;2.84;59.79;101287.88;8086151;28;20523;-60
2021/01/08 16:45:24;;;;;;;2.88;1.65;;;;;;;2.88;59.40;101301.63;8085146;28;20035;-61
2021/01/08 16:49:15;;;;;;;2.42;1.98;;;;;;;2.87;59.48;101308.53;8085576;28;20048;-61
2021/01/08 16:53:06;;;;;;;2.15;1.65;;;;;;;2.87;59.62;101318.06;8082281;28;20031;-60
2021/01/08 16:56:56;;;;;;;3.00;1.90;;;;;;;2.86;59.64;101321.56;8082453;28;20036;-61
2021/01/08 17:00:47;;;;;;;3.20;1.92;;;;;;;2.87;59.67;101331.03;8084754;28;20039;-59
2021/01/08 17:04:41;;;;;;;2.33;1.80;;;;;;;2.86;59.57;101338.00;8083945;28;20702;-61
2021/01/08 17:08:31;;;;;;;2.72;1.80;;;;;;;2.85;59.69;101335.44;8082722;28;20450;-61
2021/01/08 17:12:22;;;;;;;3.38;1.88;;;;;;;2.83;59.49;101347.59;8083187;28;20115;-61
2021/01/08 17:16:21;;;;;;;3.50;2.60;;;;;;;2.84;59.53;101350.16;8083414;28;20036;-60
2021/01/08 17:20:14;;;;;;;2.97;2.30;;;;;;;2.82;59.71;101351.09;8084975;28;20035;-61
2021/01/08 17:24:06;;;;;;;3.33;2.30;;;;;;;2.82;59.81;101357.13;8086870;28;20035;-61
2021/01/08 17:27:56;;;;;;;2.15;1.95;;;;;;;2.82;59.51;101361.47;8081661;28;20384;-61
2021/01/08 17:31:47;;;;;;;3.15;2.50;;;;;;;2.81;59.56;101368.41;8081513;28;20036;-65
2021/01/08 17:35:37;;;;;;;3.20;2.45;;;;;;;2.78;59.83;101370.22;8085185;28;20035;-64
2021/01/08 17:39:28;;;;;;;3.72;2.33;;;;;;;2.74;59.69;101372.03;8082890;28;20059;-63
2021/01/08 17:43:19;;;;;;;3.83;2.35;;;;;;;2.68;59.24;101373.94;8083917;27;20049;-63
2021/01/08 17:47:09;;;;;;;2.40;2.03;;;;;;;2.62;59.36;101376.69;8082767;28;20100;-66
2021/01/08 17:51:01;;;;;;;3.00;2.35;;;;;;;2.55;59.61;101377.72;8082916;28;20071;-66
2021/01/08 17:54:51;;;;;;;2.60;2.03;;;;;;;2.47;59.60;101377.91;8084263;28;20046;-66
2021/01/08 17:58:42;;;;;;;2.38;1.88;;;;;;;2.38;59.01;101385.91;8084800;28;20043;-67
2021/01/08 18:02:32;;;;;;;3.65;2.10;;;;;;;2.29;58.97;101386.97;8080775;28;20496;-66
2021/01/08 18:06:23;;;;;;;3.03;1.92;;;;;;;2.20;59.10;101387.22;8081797;28;20058;-66
2021/01/08 18:10:14;;;;;;;3.38;2.13;;;;;;;2.12;59.38;101385.69;8084118;28;20084;-69
2021/01/08 18:14:04;;;;;;;2.00;1.80;;;;;;;2.03;58.95;101391.06;8082492;28;20077;-71